Date,TemperatureHighF,TemperatureAvgF,TemperatureLowF,DewpointHighF,DewpointAvgF,DewpointLowF,HumidityHigh,HumidityAvg,HumidityLow,PressureMaxIn,PressureMinIn,WindSpeedMaxMPH,WindSpeedAvgMPH,GustSpeedMaxMPH,PrecipitationSumIn
2013-3-1,41,36,34,40,36,34,100,100,100,30.33,30.27,16,5,24,0.01
2013-3-2,52,44,36,52,44,36,100,100,100,30.27,29.88,15,5,18,0.02
2013-3-3,44,36,29,44,36,29,100,100,100,30.14,29.88,12,6,23,0.01
2013-3-4,44,33,25,44,33,25,100,100,100,30.26,30.05,10,3,13,0.04
2013-3-5,38,32,26,38,32,26,100,100,100,30.06,29.80,12,2,16,0.02
2013-3-6,45,35,31,45,35,31,100,100,100,29.80,29.56,10,1,15,0.06
2013-3-7,46,35,30,46,35,30,100,100,100,30.04,29.80,13,2,15,0.09
2013-3-8,42,32,27,42,32,27,100,100,100,30.11,30.02,7,2,8,0.02
2013-3-9,51,37,27,51,37,27,100,100,100,30.39,30.11,9,1,12,0.02
2013-3-10,42,35,28,42,35,28,100,100,100,30.39,30.22,14,5,18,0.03
2013-3-11,49,38,29,49,38,29,100,100,100,30.31,30.21,12,2,14,0.02
2013-3-12,54,43,37,54,43,37,100,100,100,30.21,30.05,16,6,22,0.01
2013-3-13,53,50,48,53,50,48,100,100,100,30.15,30.13,6,1,7,0.01
2013-3-14,59,49,42,59,49,42,100,100,100,30.14,29.99,14,4,21,0.01
2013-3-15,54,43,38,54,43,38,100,100,100,30.16,30.02,12,6,15,0.00
2013-3-17,46,38,30,46,38,30,100,100,100,29.99,29.92,12,7,22,0.01
2013-3-18,45,32,26,45,32,26,100,100,100,30.15,29.95,16,7,26,0.01
2013-3-19,47,34,22,47,34,22,100,100,100,30.24,29.82,15,4,20,0.00
2013-3-20,50,42,34,50,42,33,100,100,100,29.82,29.48,20,6,28,0.15
2013-3-21,44,33,27,44,33,27,100,100,100,29.99,29.75,14,6,24,0.01
2013-3-22,44,31,22,44,31,22,100,100,100,30.21,29.98,10,2,15,0.00
2013-3-23,44,30,19,44,30,19,100,100,100,30.31,30.21,10,2,13,0.00
2013-3-24,44,32,23,44,32,23,100,100,100,30.32,30.16,8,3,14,0.00
2013-3-25,50,35,23,50,35,23,100,100,100,30.16,29.98,10,2,13,0.00
2013-3-26,55,39,28,55,39,28,100,100,100,30.00,29.94,7,1,9,0.00
2013-3-27,54,43,34,54,43,34,100,100,100,30.00,29.93,8,2,10,0.00
2013-3-28,59,46,34,59,46,34,100,100,100,30.10,29.99,9,2,13,0.00
2013-3-29,61,46,35,61,44,-100,100,98,100,30.22,30.09,10,3,15,0.00
2013-3-30,64,47,33,64,46,-100,100,100,100,30.29,30.14,8,1,10,0.00
2013-3-31,66,48,34,66,48,34,100,100,100,30.14,29.95,7,2,23,0.00